sensor_id;sensor_type;location;lat;lon;timestamp;P1;durP1;ratioP1;P2;durP2;ratioP2
70052;SDS011;57398;52.032;4.376;2023-08-21T00:02:43;5.95;;;2.03;;
70052;SDS011;57398;52.032;4.376;2023-08-21T00:05:31;6.75;;;1.90;;
70052;SDS011;57398;52.032;4.376;2023-08-21T00:08:19;4.90;;;1.87;;
70052;SDS011;57398;52.032;4.376;2023-08-21T00:11:08;6.80;;;2.00;;
70052;SDS011;57398;52.032;4.376;2023-08-21T00:13:56;5.15;;;1.90;;
70052;SDS011;57398;52.032;4.376;2023-08-21T00:16:44;6.28;;;2.28;;
70052;SDS011;57398;52.032;4.376;2023-08-21T00:19:34;5.85;;;1.85;;
70052;SDS011;57398;52.032;4.376;2023-08-21T00:22:22;6.03;;;1.83;;
70052;SDS011;57398;52.032;4.376;2023-08-21T00:25:10;5.93;;;1.77;;
70052;SDS011;57398;52.032;4.376;2023-08-21T00:27:58;5.45;;;1.85;;
70052;SDS011;57398;52.032;4.376;2023-08-21T00:30:46;6.07;;;2.08;;
70052;SDS011;57398;52.032;4.376;2023-08-21T00:33:35;6.80;;;2.20;;
70052;SDS011;57398;52.032;4.376;2023-08-21T00:36:25;5.17;;;2.00;;
70052;SDS011;57398;52.032;4.376;2023-08-21T00:39:13;5.53;;;2.15;;
70052;SDS011;57398;52.032;4.376;2023-08-21T00:42:01;5.75;;;2.00;;
70052;SDS011;57398;52.032;4.376;2023-08-21T00:44:49;5.25;;;1.98;;
70052;SDS011;57398;52.032;4.376;2023-08-21T00:47:37;5.15;;;1.67;;
70052;SDS011;57398;52.032;4.376;2023-08-21T00:50:26;4.90;;;1.93;;
70052;SDS011;57398;52.032;4.376;2023-08-21T00:53:15;7.72;;;1.77;;
70052;SDS011;57398;52.032;4.376;2023-08-21T00:56:04;4.95;;;1.65;;
70052;SDS011;57398;52.032;4.376;2023-08-21T00:58:52;5.90;;;2.03;;
70052;SDS011;57398;52.032;4.376;2023-08-21T01:01:40;6.18;;;1.83;;
70052;SDS011;57398;52.032;4.376;2023-08-21T01:04:29;5.50;;;1.73;;
70052;SDS011;57398;52.032;4.376;2023-08-21T01:07:16;5.30;;;2.00;;
70052;SDS011;57398;52.032;4.376;2023-08-21T01:10:07;6.15;;;1.83;;
70052;SDS011;57398;52.032;4.376;2023-08-21T01:13:05;6.05;;;2.08;;
70052;SDS011;57398;52.032;4.376;2023-08-21T01:15:57;6.65;;;1.98;;
70052;SDS011;57398;52.032;4.376;2023-08-21T01:18:49;6.30;;;1.80;;
70052;SDS011;57398;52.032;4.376;2023-08-21T01:21:37;5.07;;;1.70;;
70052;SDS011;57398;52.032;4.376;2023-08-21T01:24:27;6.80;;;2.08;;
70052;SDS011;57398;52.032;4.376;2023-08-21T01:27:15;6.53;;;2.10;;
70052;SDS011;57398;52.032;4.376;2023-08-21T01:30:04;8.75;;;2.00;;
70052;SDS011;57398;52.032;4.376;2023-08-21T01:32:56;5.50;;;1.80;;
70052;SDS011;57398;52.032;4.376;2023-08-21T01:35:47;5.25;;;1.67;;
70052;SDS011;57398;52.032;4.376;2023-08-21T01:38:36;4.10;;;1.63;;
70052;SDS011;57398;52.032;4.376;2023-08-21T01:41:26;7.68;;;1.88;;
70052;SDS011;57398;52.032;4.376;2023-08-21T01:44:14;5.22;;;1.77;;
70052;SDS011;57398;52.032;4.376;2023-08-21T01:47:02;5.13;;;1.77;;
70052;SDS011;57398;52.032;4.376;2023-08-21T01:49:50;5.18;;;1.80;;
70052;SDS011;57398;52.032;4.376;2023-08-21T01:52:39;4.63;;;1.52;;
70052;SDS011;57398;52.032;4.376;2023-08-21T01:55:27;5.50;;;1.85;;
70052;SDS011;57398;52.032;4.376;2023-08-21T01:58:16;5.28;;;1.80;;
70052;SDS011;57398;52.032;4.376;2023-08-21T02:01:04;4.67;;;1.80;;
70052;SDS011;57398;52.032;4.376;2023-08-21T02:03:52;4.75;;;1.67;;
70052;SDS011;57398;52.032;4.376;2023-08-21T02:06:40;4.60;;;1.70;;
70052;SDS011;57398;52.032;4.376;2023-08-21T02:09:30;4.50;;;1.63;;
70052;SDS011;57398;52.032;4.376;2023-08-21T02:12:18;4.82;;;1.85;;
70052;SDS011;57398;52.032;4.376;2023-08-21T02:15:08;4.80;;;2.10;;
70052;SDS011;57398;52.032;4.376;2023-08-21T02:17:57;4.95;;;1.90;;
70052;SDS011;57398;52.032;4.376;2023-08-21T02:20:46;5.32;;;1.70;;
70052;SDS011;57398;52.032;4.376;2023-08-21T02:23:34;7.00;;;1.75;;
70052;SDS011;57398;52.032;4.376;2023-08-21T02:26:23;3.97;;;1.60;;
70052;SDS011;57398;52.032;4.376;2023-08-21T02:29:11;3.40;;;1.40;;
70052;SDS011;57398;52.032;4.376;2023-08-21T02:32:00;4.65;;;1.58;;
70052;SDS011;57398;52.032;4.376;2023-08-21T02:34:49;3.78;;;1.60;;
70052;SDS011;57398;52.032;4.376;2023-08-21T02:37:37;4.70;;;1.98;;
70052;SDS011;57398;52.032;4.376;2023-08-21T02:40:26;4.32;;;1.88;;
70052;SDS011;57398;52.032;4.376;2023-08-21T02:43:14;5.10;;;2.10;;
70052;SDS011;57398;52.032;4.376;2023-08-21T02:46:03;5.07;;;1.88;;
70052;SDS011;57398;52.032;4.376;2023-08-21T02:48:53;4.97;;;1.95;;
70052;SDS011;57398;52.032;4.376;2023-08-21T02:51:41;5.15;;;1.90;;
70052;SDS011;57398;52.032;4.376;2023-08-21T02:54:29;5.30;;;2.38;;
70052;SDS011;57398;52.032;4.376;2023-08-21T02:57:18;4.93;;;2.00;;
70052;SDS011;57398;52.032;4.376;2023-08-21T03:00:06;6.18;;;1.83;;
70052;SDS011;57398;52.032;4.376;2023-08-21T03:02:55;5.20;;;2.00;;
70052;SDS011;57398;52.032;4.376;2023-08-21T03:05:45;6.38;;;2.35;;
70052;SDS011;57398;52.032;4.376;2023-08-21T03:08:33;5.95;;;1.90;;
70052;SDS011;57398;52.032;4.376;2023-08-21T03:11:21;6.03;;;1.80;;
70052;SDS011;57398;52.032;4.376;2023-08-21T03:14:09;5.40;;;1.90;;
70052;SDS011;57398;52.032;4.376;2023-08-21T03:16:57;7.22;;;1.90;;
70052;SDS011;57398;52.032;4.376;2023-08-21T03:19:45;7.95;;;2.20;;
70052;SDS011;57398;52.032;4.376;2023-08-21T03:22:35;5.05;;;2.10;;
70052;SDS011;57398;52.032;4.376;2023-08-21T03:25:23;5.50;;;1.90;;
70052;SDS011;57398;52.032;4.376;2023-08-21T03:28:12;5.57;;;2.00;;
70052;SDS011;57398;52.032;4.376;2023-08-21T03:31:00;3.63;;;1.80;;
70052;SDS011;57398;52.032;4.376;2023-08-21T03:33:48;3.85;;;1.85;;
70052;SDS011;57398;52.032;4.376;2023-08-21T03:36:36;7.43;;;2.00;;
70052;SDS011;57398;52.032;4.376;2023-08-21T03:39:26;5.80;;;1.80;;
70052;SDS011;57398;52.032;4.376;2023-08-21T03:42:15;4.65;;;1.92;;
70052;SDS011;57398;52.032;4.376;2023-08-21T03:45:03;4.78;;;2.00;;
70052;SDS011;57398;52.032;4.376;2023-08-21T03:47:52;4.90;;;1.90;;
70052;SDS011;57398;52.032;4.376;2023-08-21T03:50:40;4.20;;;1.90;;
70052;SDS011;57398;52.032;4.376;2023-08-21T03:53:29;6.80;;;2.20;;
70052;SDS011;57398;52.032;4.376;2023-08-21T03:56:18;4.25;;;1.90;;
70052;SDS011;57398;52.032;4.376;2023-08-21T03:59:06;5.63;;;2.17;;
70052;SDS011;57398;52.032;4.376;2023-08-21T04:01:54;5.35;;;2.20;;
70052;SDS011;57398;52.032;4.376;2023-08-21T04:04:42;5.05;;;1.85;;
70052;SDS011;57398;52.032;4.376;2023-08-21T04:07:31;5.83;;;2.27;;
70052;SDS011;57398;52.032;4.376;2023-08-21T04:10:19;5.95;;;2.05;;
70052;SDS011;57398;52.032;4.376;2023-08-21T04:13:08;5.47;;;2.03;;
70052;SDS011;57398;52.032;4.376;2023-08-21T04:15:57;5.75;;;2.03;;
70052;SDS011;57398;52.032;4.376;2023-08-21T04:18:45;5.75;;;2.08;;
70052;SDS011;57398;52.032;4.376;2023-08-21T04:21:33;5.43;;;1.90;;
70052;SDS011;57398;52.032;4.376;2023-08-21T04:24:21;5.85;;;2.13;;
70052;SDS011;57398;52.032;4.376;2023-08-21T04:27:09;5.32;;;1.92;;
70052;SDS011;57398;52.032;4.376;2023-08-21T04:29:59;6.00;;;1.90;;
70052;SDS011;57398;52.032;4.376;2023-08-21T04:32:47;5.10;;;2.20;;
70052;SDS011;57398;52.032;4.376;2023-08-21T04:35:36;4.80;;;2.10;;
70052;SDS011;57398;52.032;4.376;2023-08-21T04:38:25;5.60;;;1.85;;
70052;SDS011;57398;52.032;4.376;2023-08-21T04:41:13;6.50;;;1.90;;
70052;SDS011;57398;52.032;4.376;2023-08-21T04:44:01;4.88;;;1.92;;
70052;SDS011;57398;52.032;4.376;2023-08-21T04:46:51;5.45;;;2.20;;
70052;SDS011;57398;52.032;4.376;2023-08-21T04:49:39;5.23;;;2.00;;
70052;SDS011;57398;52.032;4.376;2023-08-21T04:52:27;5.07;;;2.03;;
70052;SDS011;57398;52.032;4.376;2023-08-21T04:55:15;6.80;;;2.30;;
70052;SDS011;57398;52.032;4.376;2023-08-21T04:58:04;6.50;;;2.38;;
70052;SDS011;57398;52.032;4.376;2023-08-21T05:00:51;5.53;;;2.40;;
70052;SDS011;57398;52.032;4.376;2023-08-21T05:03:41;7.20;;;2.40;;
70052;SDS011;57398;52.032;4.376;2023-08-21T05:06:30;6.78;;;2.30;;
70052;SDS011;57398;52.032;4.376;2023-08-21T05:09:18;6.25;;;2.38;;
70052;SDS011;57398;52.032;4.376;2023-08-21T05:12:07;7.72;;;2.63;;
70052;SDS011;57398;52.032;4.376;2023-08-21T05:14:55;9.15;;;2.55;;
70052;SDS011;57398;52.032;4.376;2023-08-21T05:17:43;6.00;;;2.50;;
70052;SDS011;57398;52.032;4.376;2023-08-21T05:20:33;6.75;;;2.40;;
70052;SDS011;57398;52.032;4.376;2023-08-21T05:23:21;6.07;;;2.50;;
70052;SDS011;57398;52.032;4.376;2023-08-21T05:26:10;5.50;;;2.47;;
70052;SDS011;57398;52.032;4.376;2023-08-21T05:28:58;7.30;;;2.53;;
70052;SDS011;57398;52.032;4.376;2023-08-21T05:31:46;7.70;;;2.70;;
70052;SDS011;57398;52.032;4.376;2023-08-21T05:34:35;5.68;;;2.35;;
70052;SDS011;57398;52.032;4.376;2023-08-21T05:37:25;6.38;;;2.30;;
70052;SDS011;57398;52.032;4.376;2023-08-21T05:40:13;5.82;;;2.60;;
70052;SDS011;57398;52.032;4.376;2023-08-21T05:43:02;6.88;;;2.70;;
70052;SDS011;57398;52.032;4.376;2023-08-21T05:45:50;6.57;;;2.70;;
70052;SDS011;57398;52.032;4.376;2023-08-21T05:48:39;7.82;;;3.00;;
70052;SDS011;57398;52.032;4.376;2023-08-21T05:51:27;6.15;;;2.80;;
70052;SDS011;57398;52.032;4.376;2023-08-21T05:54:16;7.85;;;3.33;;
70052;SDS011;57398;52.032;4.376;2023-08-21T05:57:04;7.32;;;3.28;;
70052;SDS011;57398;52.032;4.376;2023-08-21T05:59:53;6.20;;;2.90;;
70052;SDS011;57398;52.032;4.376;2023-08-21T06:02:41;8.05;;;3.60;;
70052;SDS011;57398;52.032;4.376;2023-08-21T06:05:29;9.73;;;3.38;;
70052;SDS011;57398;52.032;4.376;2023-08-21T06:08:18;8.90;;;3.42;;
70052;SDS011;57398;52.032;4.376;2023-08-21T06:11:07;9.75;;;3.30;;
70052;SDS011;57398;52.032;4.376;2023-08-21T06:13:55;11.07;;;3.80;;
70052;SDS011;57398;52.032;4.376;2023-08-21T06:16:44;8.95;;;3.70;;
70052;SDS011;57398;52.032;4.376;2023-08-21T06:19:32;13.13;;;3.83;;
70052;SDS011;57398;52.032;4.376;2023-08-21T06:22:20;10.40;;;3.50;;
70052;SDS011;57398;52.032;4.376;2023-08-21T06:25:08;11.35;;;4.72;;
70052;SDS011;57398;52.032;4.376;2023-08-21T06:27:58;13.30;;;4.40;;
70052;SDS011;57398;52.032;4.376;2023-08-21T06:30:46;12.60;;;4.82;;
70052;SDS011;57398;52.032;4.376;2023-08-21T06:33:41;10.80;;;3.97;;
70052;SDS011;57398;52.032;4.376;2023-08-21T06:36:29;12.90;;;4.30;;
70052;SDS011;57398;52.032;4.376;2023-08-21T06:39:17;12.40;;;4.38;;
70052;SDS011;57398;52.032;4.376;2023-08-21T06:42:05;13.13;;;4.30;;
70052;SDS011;57398;52.032;4.376;2023-08-21T06:44:55;15.75;;;4.15;;
70052;SDS011;57398;52.032;4.376;2023-08-21T06:47:43;11.05;;;3.92;;
70052;SDS011;57398;52.032;4.376;2023-08-21T06:50:31;12.52;;;4.55;;
70052;SDS011;57398;52.032;4.376;2023-08-21T06:53:19;12.75;;;4.53;;
70052;SDS011;57398;52.032;4.376;2023-08-21T06:56:08;11.57;;;4.53;;
70052;SDS011;57398;52.032;4.376;2023-08-21T06:58:56;12.20;;;4.40;;
70052;SDS011;57398;52.032;4.376;2023-08-21T07:01:45;13.00;;;4.60;;
70052;SDS011;57398;52.032;4.376;2023-08-21T07:04:33;13.32;;;4.78;;
70052;SDS011;57398;52.032;4.376;2023-08-21T07:07:22;15.63;;;4.40;;
70052;SDS011;57398;52.032;4.376;2023-08-21T07:10:10;13.37;;;4.50;;
70052;SDS011;57398;52.032;4.376;2023-08-21T07:12:58;10.38;;;4.05;;
70052;SDS011;57398;52.032;4.376;2023-08-21T07:15:46;12.07;;;3.88;;
70052;SDS011;57398;52.032;4.376;2023-08-21T07:18:38;11.20;;;3.92;;
70052;SDS011;57398;52.032;4.376;2023-08-21T07:21:26;10.98;;;3.42;;
70052;SDS011;57398;52.032;4.376;2023-08-21T07:24:19;7.43;;;3.17;;
70052;SDS011;57398;52.032;4.376;2023-08-21T07:27:08;11.55;;;3.67;;
70052;SDS011;57398;52.032;4.376;2023-08-21T07:29:56;8.98;;;3.33;;
70052;SDS011;57398;52.032;4.376;2023-08-21T07:32:45;12.27;;;3.30;;
70052;SDS011;57398;52.032;4.376;2023-08-21T07:35:34;8.43;;;2.92;;
70052;SDS011;57398;52.032;4.376;2023-08-21T07:38:23;11.53;;;2.80;;
70052;SDS011;57398;52.032;4.376;2023-08-21T07:41:12;5.78;;;2.15;;
70052;SDS011;57398;52.032;4.376;2023-08-21T07:44:00;10.85;;;2.55;;
70052;SDS011;57398;52.032;4.376;2023-08-21T07:46:49;5.95;;;2.35;;
70052;SDS011;57398;52.032;4.376;2023-08-21T07:49:38;9.32;;;2.40;;
70052;SDS011;57398;52.032;4.376;2023-08-21T07:52:27;5.57;;;2.07;;
70052;SDS011;57398;52.032;4.376;2023-08-21T07:55:15;8.25;;;2.28;;
70052;SDS011;57398;52.032;4.376;2023-08-21T07:58:04;8.50;;;2.70;;
70052;SDS011;57398;52.032;4.376;2023-08-21T08:00:52;8.10;;;2.08;;
70052;SDS011;57398;52.032;4.376;2023-08-21T08:03:40;6.28;;;2.25;;
70052;SDS011;57398;52.032;4.376;2023-08-21T08:06:28;5.60;;;2.00;;
70052;SDS011;57398;52.032;4.376;2023-08-21T08:09:18;6.97;;;1.85;;
70052;SDS011;57398;52.032;4.376;2023-08-21T08:12:06;5.97;;;2.20;;
70052;SDS011;57398;52.032;4.376;2023-08-21T08:14:55;7.53;;;2.20;;
70052;SDS011;57398;52.032;4.376;2023-08-21T08:17:43;5.97;;;1.70;;
70052;SDS011;57398;52.032;4.376;2023-08-21T08:20:32;6.83;;;1.77;;
70052;SDS011;57398;52.032;4.376;2023-08-21T08:23:21;5.47;;;1.40;;
70052;SDS011;57398;52.032;4.376;2023-08-21T08:26:11;7.18;;;1.90;;
70052;SDS011;57398;52.032;4.376;2023-08-21T08:28:59;5.32;;;1.80;;
70052;SDS011;57398;52.032;4.376;2023-08-21T08:31:47;4.80;;;1.63;;
70052;SDS011;57398;52.032;4.376;2023-08-21T08:34:36;7.23;;;1.83;;
70052;SDS011;57398;52.032;4.376;2023-08-21T08:37:24;5.32;;;1.30;;
70052;SDS011;57398;52.032;4.376;2023-08-21T08:40:12;7.22;;;1.60;;
70052;SDS011;57398;52.032;4.376;2023-08-21T08:43:02;9.35;;;1.38;;
70052;SDS011;57398;52.032;4.376;2023-08-21T08:45:52;4.75;;;1.20;;
70052;SDS011;57398;52.032;4.376;2023-08-21T08:48:42;6.70;;;1.67;;
70052;SDS011;57398;52.032;4.376;2023-08-21T08:51:30;5.00;;;1.70;;
70052;SDS011;57398;52.032;4.376;2023-08-21T08:54:23;4.65;;;1.40;;
70052;SDS011;57398;52.032;4.376;2023-08-21T08:57:14;5.88;;;1.30;;
70052;SDS011;57398;52.032;4.376;2023-08-21T09:00:04;5.13;;;1.42;;
70052;SDS011;57398;52.032;4.376;2023-08-21T09:02:53;4.53;;;1.00;;
70052;SDS011;57398;52.032;4.376;2023-08-21T09:05:43;6.70;;;1.35;;
70052;SDS011;57398;52.032;4.376;2023-08-21T09:08:31;4.07;;;0.90;;
70052;SDS011;57398;52.032;4.376;2023-08-21T09:11:19;5.10;;;1.15;;
70052;SDS011;57398;52.032;4.376;2023-08-21T09:14:07;4.75;;;1.30;;
70052;SDS011;57398;52.032;4.376;2023-08-21T09:17:00;4.00;;;1.13;;
70052;SDS011;57398;52.032;4.376;2023-08-21T09:19:50;6.30;;;1.20;;
70052;SDS011;57398;52.032;4.376;2023-08-21T09:22:38;5.38;;;1.23;;
70052;SDS011;57398;52.032;4.376;2023-08-21T09:25:26;4.65;;;0.90;;
70052;SDS011;57398;52.032;4.376;2023-08-21T09:28:17;3.88;;;0.70;;
70052;SDS011;57398;52.032;4.376;2023-08-21T09:31:08;4.37;;;0.90;;
70052;SDS011;57398;52.032;4.376;2023-08-21T09:33:58;3.88;;;0.75;;
70052;SDS011;57398;52.032;4.376;2023-08-21T09:36:49;5.05;;;0.98;;
70052;SDS011;57398;52.032;4.376;2023-08-21T09:39:41;3.83;;;0.75;;
70052;SDS011;57398;52.032;4.376;2023-08-21T09:42:30;5.90;;;1.00;;
70052;SDS011;57398;52.032;4.376;2023-08-21T09:45:20;4.10;;;0.80;;
70052;SDS011;57398;52.032;4.376;2023-08-21T09:48:08;4.63;;;1.10;;
70052;SDS011;57398;52.032;4.376;2023-08-21T09:50:58;4.63;;;0.95;;
70052;SDS011;57398;52.032;4.376;2023-08-21T09:53:50;3.05;;;0.80;;
70052;SDS011;57398;52.032;4.376;2023-08-21T09:56:41;5.43;;;0.77;;
70052;SDS011;57398;52.032;4.376;2023-08-21T09:59:30;3.37;;;0.60;;
70052;SDS011;57398;52.032;4.376;2023-08-21T10:02:18;2.60;;;0.70;;
70052;SDS011;57398;52.032;4.376;2023-08-21T10:05:08;3.30;;;0.73;;
70052;SDS011;57398;52.032;4.376;2023-08-21T10:08:00;5.00;;;0.60;;
70052;SDS011;57398;52.032;4.376;2023-08-21T10:10:49;3.10;;;0.70;;
70052;SDS011;57398;52.032;4.376;2023-08-21T10:13:38;4.17;;;0.60;;
70052;SDS011;57398;52.032;4.376;2023-08-21T10:16:26;2.72;;;0.63;;
70052;SDS011;57398;52.032;4.376;2023-08-21T10:19:15;3.13;;;0.50;;
70052;SDS011;57398;52.032;4.376;2023-08-21T10:22:05;2.40;;;0.50;;
70052;SDS011;57398;52.032;4.376;2023-08-21T10:24:55;3.00;;;0.50;;
70052;SDS011;57398;52.032;4.376;2023-08-21T10:27:49;3.57;;;0.70;;
70052;SDS011;57398;52.032;4.376;2023-08-21T10:30:39;3.13;;;0.40;;
70052;SDS011;57398;52.032;4.376;2023-08-21T10:33:45;3.03;;;0.60;;
70052;SDS011;57398;52.032;4.376;2023-08-21T10:39:58;3.17;;;0.70;;
70052;SDS011;57398;52.032;4.376;2023-08-21T10:42:46;2.60;;;0.60;;
70052;SDS011;57398;52.032;4.376;2023-08-21T10:45:34;4.45;;;0.80;;
70052;SDS011;57398;52.032;4.376;2023-08-21T10:48:42;3.58;;;0.65;;
70052;SDS011;57398;52.032;4.376;2023-08-21T10:51:30;3.60;;;0.77;;
70052;SDS011;57398;52.032;4.376;2023-08-21T10:54:18;3.58;;;0.52;;
70052;SDS011;57398;52.032;4.376;2023-08-21T10:57:08;3.60;;;0.70;;
70052;SDS011;57398;52.032;4.376;2023-08-21T10:59:57;3.83;;;0.55;;
70052;SDS011;57398;52.032;4.376;2023-08-21T11:02:47;3.53;;;0.50;;
70052;SDS011;57398;52.032;4.376;2023-08-21T11:05:35;3.95;;;0.80;;
70052;SDS011;57398;52.032;4.376;2023-08-21T11:08:24;3.33;;;0.70;;
70052;SDS011;57398;52.032;4.376;2023-08-21T11:11:12;3.70;;;0.70;;
70052;SDS011;57398;52.032;4.376;2023-08-21T11:14:01;3.63;;;0.60;;
70052;SDS011;57398;52.032;4.376;2023-08-21T11:16:50;4.35;;;0.68;;
70052;SDS011;57398;52.032;4.376;2023-08-21T11:19:40;2.28;;;0.50;;
70052;SDS011;57398;52.032;4.376;2023-08-21T11:22:29;3.80;;;0.93;;
70052;SDS011;57398;52.032;4.376;2023-08-21T11:25:19;4.67;;;0.80;;
70052;SDS011;57398;52.032;4.376;2023-08-21T11:28:07;3.15;;;0.60;;
70052;SDS011;57398;52.032;4.376;2023-08-21T11:30:57;3.55;;;0.90;;
70052;SDS011;57398;52.032;4.376;2023-08-21T11:33:49;3.75;;;0.80;;
70052;SDS011;57398;52.032;4.376;2023-08-21T11:36:37;4.72;;;1.13;;
70052;SDS011;57398;52.032;4.376;2023-08-21T11:39:27;2.00;;;0.57;;
70052;SDS011;57398;52.032;4.376;2023-08-21T11:42:28;3.38;;;0.63;;
70052;SDS011;57398;52.032;4.376;2023-08-21T11:45:19;5.20;;;0.70;;
70052;SDS011;57398;52.032;4.376;2023-08-21T11:48:10;4.18;;;1.00;;
70052;SDS011;57398;52.032;4.376;2023-08-21T11:50:58;4.20;;;1.05;;
70052;SDS011;57398;52.032;4.376;2023-08-21T11:53:46;4.40;;;0.70;;
70052;SDS011;57398;52.032;4.376;2023-08-21T11:56:36;3.08;;;0.80;;
70052;SDS011;57398;52.032;4.376;2023-08-21T11:59:27;3.38;;;0.90;;
70052;SDS011;57398;52.032;4.376;2023-08-21T12:02:18;4.07;;;0.70;;
70052;SDS011;57398;52.032;4.376;2023-08-21T12:05:14;2.97;;;0.77;;
70052;SDS011;57398;52.032;4.376;2023-08-21T12:08:03;4.53;;;1.00;;
70052;SDS011;57398;52.032;4.376;2023-08-21T12:10:51;2.80;;;0.80;;
70052;SDS011;57398;52.032;4.376;2023-08-21T12:13:39;4.43;;;0.88;;
70052;SDS011;57398;52.032;4.376;2023-08-21T12:16:27;3.65;;;0.90;;
70052;SDS011;57398;52.032;4.376;2023-08-21T12:19:15;4.28;;;1.05;;
70052;SDS011;57398;52.032;4.376;2023-08-21T12:22:05;3.30;;;0.90;;
70052;SDS011;57398;52.032;4.376;2023-08-21T12:24:54;3.78;;;0.90;;
70052;SDS011;57398;52.032;4.376;2023-08-21T12:27:42;4.97;;;0.93;;
70052;SDS011;57398;52.032;4.376;2023-08-21T12:30:32;3.28;;;0.82;;
70052;SDS011;57398;52.032;4.376;2023-08-21T12:33:20;3.03;;;0.93;;
70052;SDS011;57398;52.032;4.376;2023-08-21T12:36:10;5.33;;;0.93;;
70052;SDS011;57398;52.032;4.376;2023-08-21T12:39:01;3.97;;;1.00;;
70052;SDS011;57398;52.032;4.376;2023-08-21T12:41:50;3.72;;;1.00;;
70052;SDS011;57398;52.032;4.376;2023-08-21T12:44:38;5.65;;;1.08;;
70052;SDS011;57398;52.032;4.376;2023-08-21T12:47:26;3.92;;;0.98;;
70052;SDS011;57398;52.032;4.376;2023-08-21T12:50:14;3.57;;;0.93;;
70052;SDS011;57398;52.032;4.376;2023-08-21T12:53:03;4.10;;;1.00;;
70052;SDS011;57398;52.032;4.376;2023-08-21T12:55:52;4.03;;;0.90;;
70052;SDS011;57398;52.032;4.376;2023-08-21T12:58:41;4.43;;;0.95;;
70052;SDS011;57398;52.032;4.376;2023-08-21T13:01:29;4.28;;;1.48;;
70052;SDS011;57398;52.032;4.376;2023-08-21T13:04:18;6.97;;;0.97;;
70052;SDS011;57398;52.032;4.376;2023-08-21T13:07:06;3.50;;;0.90;;
70052;SDS011;57398;52.032;4.376;2023-08-21T13:09:55;3.95;;;0.80;;
70052;SDS011;57398;52.032;4.376;2023-08-21T13:12:47;2.92;;;0.90;;
70052;SDS011;57398;52.032;4.376;2023-08-21T13:15:35;4.25;;;0.93;;
70052;SDS011;57398;52.032;4.376;2023-08-21T13:18:23;3.77;;;0.70;;
70052;SDS011;57398;52.032;4.376;2023-08-21T13:21:12;3.08;;;0.80;;
70052;SDS011;57398;52.032;4.376;2023-08-21T13:24:00;3.85;;;0.90;;
70052;SDS011;57398;52.032;4.376;2023-08-21T13:26:49;4.40;;;0.90;;
70052;SDS011;57398;52.032;4.376;2023-08-21T13:29:39;2.92;;;0.98;;
70052;SDS011;57398;52.032;4.376;2023-08-21T13:32:28;4.97;;;1.10;;
70052;SDS011;57398;52.032;4.376;2023-08-21T13:35:16;3.75;;;0.88;;
70052;SDS011;57398;52.032;4.376;2023-08-21T13:38:06;3.28;;;1.10;;
70052;SDS011;57398;52.032;4.376;2023-08-21T13:40:55;4.78;;;1.08;;
70052;SDS011;57398;52.032;4.376;2023-08-21T13:43:43;3.70;;;1.00;;
70052;SDS011;57398;52.032;4.376;2023-08-21T13:46:33;4.97;;;1.20;;
70052;SDS011;57398;52.032;4.376;2023-08-21T13:49:22;5.43;;;1.13;;
70052;SDS011;57398;52.032;4.376;2023-08-21T13:52:10;3.70;;;1.08;;
70052;SDS011;57398;52.032;4.376;2023-08-21T13:54:58;4.35;;;1.23;;
70052;SDS011;57398;52.032;4.376;2023-08-21T13:57:46;4.63;;;0.90;;
70052;SDS011;57398;52.032;4.376;2023-08-21T14:00:35;3.47;;;1.17;;
70052;SDS011;57398;52.032;4.376;2023-08-21T14:03:24;5.03;;;1.00;;
70052;SDS011;57398;52.032;4.376;2023-08-21T14:06:12;3.75;;;1.02;;
70052;SDS011;57398;52.032;4.376;2023-08-21T14:09:01;4.32;;;1.23;;
70052;SDS011;57398;52.032;4.376;2023-08-21T14:11:49;7.35;;;1.33;;
70052;SDS011;57398;52.032;4.376;2023-08-21T14:14:37;3.77;;;1.07;;
70052;SDS011;57398;52.032;4.376;2023-08-21T14:17:26;3.67;;;1.10;;
70052;SDS011;57398;52.032;4.376;2023-08-21T14:20:16;5.35;;;1.00;;
70052;SDS011;57398;52.032;4.376;2023-08-21T14:23:04;4.85;;;1.10;;
70052;SDS011;57398;52.032;4.376;2023-08-21T14:25:53;4.10;;;1.10;;
70052;SDS011;57398;52.032;4.376;2023-08-21T14:28:41;6.03;;;1.20;;
70052;SDS011;57398;52.032;4.376;2023-08-21T14:31:33;4.22;;;1.10;;
70052;SDS011;57398;52.032;4.376;2023-08-21T14:34:21;4.65;;;1.10;;
70052;SDS011;57398;52.032;4.376;2023-08-21T14:37:10;4.78;;;0.93;;
70052;SDS011;57398;52.032;4.376;2023-08-21T14:40:01;3.03;;;0.98;;
70052;SDS011;57398;52.032;4.376;2023-08-21T14:42:53;3.90;;;1.00;;
70052;SDS011;57398;52.032;4.376;2023-08-21T14:45:42;3.78;;;1.20;;
70052;SDS011;57398;52.032;4.376;2023-08-21T14:48:30;3.42;;;0.90;;
70052;SDS011;57398;52.032;4.376;2023-08-21T14:51:18;2.85;;;1.00;;
70052;SDS011;57398;52.032;4.376;2023-08-21T14:54:07;5.40;;;1.00;;
70052;SDS011;57398;52.032;4.376;2023-08-21T14:56:55;4.30;;;1.10;;
70052;SDS011;57398;52.032;4.376;2023-08-21T14:59:43;3.30;;;1.15;;
70052;SDS011;57398;52.032;4.376;2023-08-21T15:02:32;4.32;;;1.13;;
70052;SDS011;57398;52.032;4.376;2023-08-21T15:05:20;5.22;;;1.20;;
70052;SDS011;57398;52.032;4.376;2023-08-21T15:08:08;4.03;;;1.20;;
70052;SDS011;57398;52.032;4.376;2023-08-21T15:10:58;3.90;;;0.90;;
70052;SDS011;57398;52.032;4.376;2023-08-21T15:13:46;5.80;;;1.05;;
70052;SDS011;57398;52.032;4.376;2023-08-21T15:16:34;3.90;;;0.90;;
70052;SDS011;57398;52.032;4.376;2023-08-21T15:19:22;2.85;;;0.93;;
70052;SDS011;57398;52.032;4.376;2023-08-21T15:22:10;5.18;;;1.15;;
70052;SDS011;57398;52.032;4.376;2023-08-21T15:24:58;3.40;;;0.90;;
70052;SDS011;57398;52.032;4.376;2023-08-21T15:27:49;4.47;;;0.80;;
70052;SDS011;57398;52.032;4.376;2023-08-21T15:30:38;5.55;;;1.25;;
70052;SDS011;57398;52.032;4.376;2023-08-21T15:33:28;4.03;;;1.00;;
70052;SDS011;57398;52.032;4.376;2023-08-21T15:36:16;3.42;;;0.90;;
70052;SDS011;57398;52.032;4.376;2023-08-21T15:39:05;3.00;;;0.80;;
70052;SDS011;57398;52.032;4.376;2023-08-21T15:41:53;3.83;;;0.90;;
70052;SDS011;57398;52.032;4.376;2023-08-21T15:44:42;4.35;;;1.15;;
70052;SDS011;57398;52.032;4.376;2023-08-21T15:47:31;5.38;;;1.20;;
70052;SDS011;57398;52.032;4.376;2023-08-21T15:50:21;3.28;;;0.93;;
70052;SDS011;57398;52.032;4.376;2023-08-21T15:53:10;4.23;;;0.97;;
70052;SDS011;57398;52.032;4.376;2023-08-21T15:55:57;4.00;;;0.80;;
70052;SDS011;57398;52.032;4.376;2023-08-21T15:58:46;2.80;;;0.80;;
70052;SDS011;57398;52.032;4.376;2023-08-21T16:01:35;3.95;;;1.30;;
70052;SDS011;57398;52.032;4.376;2023-08-21T16:04:28;4.97;;;1.05;;
70052;SDS011;57398;52.032;4.376;2023-08-21T16:07:16;4.13;;;1.30;;
70052;SDS011;57398;52.032;4.376;2023-08-21T16:10:05;3.88;;;0.90;;
70052;SDS011;57398;52.032;4.376;2023-08-21T16:12:54;4.90;;;1.27;;
70052;SDS011;57398;52.032;4.376;2023-08-21T16:15:42;3.33;;;0.80;;
70052;SDS011;57398;52.032;4.376;2023-08-21T16:18:31;3.65;;;1.10;;
70052;SDS011;57398;52.032;4.376;2023-08-21T16:21:24;4.63;;;0.90;;
70052;SDS011;57398;52.032;4.376;2023-08-21T16:24:12;4.38;;;1.02;;
70052;SDS011;57398;52.032;4.376;2023-08-21T16:27:00;4.18;;;1.00;;
70052;SDS011;57398;52.032;4.376;2023-08-21T16:29:49;3.90;;;1.10;;
70052;SDS011;57398;52.032;4.376;2023-08-21T16:32:37;3.28;;;1.20;;
70052;SDS011;57398;52.032;4.376;2023-08-21T16:35:27;4.10;;;1.10;;
70052;SDS011;57398;52.032;4.376;2023-08-21T16:38:15;4.28;;;0.95;;
70052;SDS011;57398;52.032;4.376;2023-08-21T16:41:03;3.25;;;1.00;;
70052;SDS011;57398;52.032;4.376;2023-08-21T16:43:51;3.55;;;1.00;;
70052;SDS011;57398;52.032;4.376;2023-08-21T16:46:40;3.97;;;1.00;;
70052;SDS011;57398;52.032;4.376;2023-08-21T16:49:28;5.80;;;1.30;;
70052;SDS011;57398;52.032;4.376;2023-08-21T16:52:18;4.30;;;0.90;;
70052;SDS011;57398;52.032;4.376;2023-08-21T16:55:07;4.00;;;1.10;;
70052;SDS011;57398;52.032;4.376;2023-08-21T16:57:56;2.80;;;0.70;;
70052;SDS011;57398;52.032;4.376;2023-08-21T17:00:44;3.67;;;1.23;;